sensor_id;sensor_type;location;lat;lon;timestamp;P1;durP1;ratioP1;P2;durP2;ratioP2
10977;SDS011;5542;48.272;10.794;2023-05-02T00:00:16;2.00;;;1.90;;
10977;SDS011;5542;48.272;10.794;2023-05-02T00:02:42;2.00;;;1.90;;
10977;SDS011;5542;48.272;10.794;2023-05-02T00:05:09;1.95;;;1.85;;
10977;SDS011;5542;48.272;10.794;2023-05-02T00:07:36;2.10;;;2.00;;
10977;SDS011;5542;48.272;10.794;2023-05-02T00:10:03;1.88;;;1.75;;
10977;SDS011;5542;48.272;10.794;2023-05-02T00:12:31;2.00;;;1.90;;
10977;SDS011;5542;48.272;10.794;2023-05-02T00:14:58;1.90;;;1.80;;
10977;SDS011;5542;48.272;10.794;2023-05-02T00:17:25;2.30;;;2.20;;
10977;SDS011;5542;48.272;10.794;2023-05-02T00:19:51;1.98;;;1.88;;
10977;SDS011;5542;48.272;10.794;2023-05-02T00:22:18;1.95;;;1.85;;
10977;SDS011;5542;48.272;10.794;2023-05-02T00:24:45;1.70;;;1.60;;
10977;SDS011;5542;48.272;10.794;2023-05-02T00:27:11;1.58;;;1.50;;
10977;SDS011;5542;48.272;10.794;2023-05-02T00:29:39;1.92;;;1.80;;
10977;SDS011;5542;48.272;10.794;2023-05-02T00:32:06;1.88;;;1.77;;
10977;SDS011;5542;48.272;10.794;2023-05-02T00:34:33;1.83;;;1.73;;
10977;SDS011;5542;48.272;10.794;2023-05-02T00:36:59;1.80;;;1.70;;
10977;SDS011;5542;48.272;10.794;2023-05-02T00:39:26;1.60;;;1.50;;
10977;SDS011;5542;48.272;10.794;2023-05-02T00:41:55;1.67;;;1.60;;
10977;SDS011;5542;48.272;10.794;2023-05-02T00:44:22;1.40;;;1.30;;
10977;SDS011;5542;48.272;10.794;2023-05-02T00:46:50;1.77;;;1.67;;
10977;SDS011;5542;48.272;10.794;2023-05-02T00:49:17;1.55;;;1.45;;
10977;SDS011;5542;48.272;10.794;2023-05-02T00:51:44;1.80;;;1.70;;
10977;SDS011;5542;48.272;10.794;2023-05-02T00:54:11;1.63;;;1.53;;
10977;SDS011;5542;48.272;10.794;2023-05-02T00:56:38;1.97;;;1.87;;
10977;SDS011;5542;48.272;10.794;2023-05-02T00:59:05;1.92;;;1.83;;
10977;SDS011;5542;48.272;10.794;2023-05-02T01:01:35;1.90;;;1.80;;
10977;SDS011;5542;48.272;10.794;2023-05-02T01:04:14;1.83;;;1.73;;
10977;SDS011;5542;48.272;10.794;2023-05-02T01:06:52;1.85;;;1.75;;
10977;SDS011;5542;48.272;10.794;2023-05-02T01:09:31;1.80;;;1.70;;
10977;SDS011;5542;48.272;10.794;2023-05-02T01:12:09;1.70;;;1.60;;
10977;SDS011;5542;48.272;10.794;2023-05-02T01:14:44;2.55;;;1.65;;
10977;SDS011;5542;48.272;10.794;2023-05-02T01:17:16;2.20;;;2.10;;
10977;SDS011;5542;48.272;10.794;2023-05-02T01:19:49;2.10;;;2.00;;
10977;SDS011;5542;48.272;10.794;2023-05-02T01:22:18;2.05;;;1.95;;
10977;SDS011;5542;48.272;10.794;2023-05-02T01:24:48;2.30;;;2.20;;
10977;SDS011;5542;48.272;10.794;2023-05-02T01:27:23;2.15;;;2.05;;
10977;SDS011;5542;48.272;10.794;2023-05-02T01:30:03;2.10;;;2.00;;
10977;SDS011;5542;48.272;10.794;2023-05-02T01:32:32;2.20;;;2.10;;
10977;SDS011;5542;48.272;10.794;2023-05-02T01:35:02;1.88;;;1.77;;
10977;SDS011;5542;48.272;10.794;2023-05-02T01:37:30;2.00;;;1.90;;
10977;SDS011;5542;48.272;10.794;2023-05-02T01:39:58;1.90;;;1.80;;
10977;SDS011;5542;48.272;10.794;2023-05-02T01:42:28;2.08;;;1.98;;
10977;SDS011;5542;48.272;10.794;2023-05-02T01:44:57;1.98;;;1.88;;
10977;SDS011;5542;48.272;10.794;2023-05-02T01:47:27;2.13;;;2.03;;
10977;SDS011;5542;48.272;10.794;2023-05-02T01:49:57;1.80;;;1.70;;
10977;SDS011;5542;48.272;10.794;2023-05-02T01:52:25;2.30;;;2.20;;
10977;SDS011;5542;48.272;10.794;2023-05-02T01:54:53;2.00;;;1.90;;
10977;SDS011;5542;48.272;10.794;2023-05-02T01:57:22;2.10;;;1.90;;
10977;SDS011;5542;48.272;10.794;2023-05-02T01:59:50;2.20;;;2.10;;
10977;SDS011;5542;48.272;10.794;2023-05-02T02:02:20;2.20;;;2.10;;
10977;SDS011;5542;48.272;10.794;2023-05-02T02:04:49;2.35;;;2.22;;
10977;SDS011;5542;48.272;10.794;2023-05-02T02:07:18;2.08;;;1.98;;
10977;SDS011;5542;48.272;10.794;2023-05-02T02:09:44;1.90;;;1.80;;
10977;SDS011;5542;48.272;10.794;2023-05-02T02:12:13;2.22;;;2.13;;
10977;SDS011;5542;48.272;10.794;2023-05-02T02:14:44;2.75;;;2.58;;
10977;SDS011;5542;48.272;10.794;2023-05-02T02:17:15;2.38;;;2.28;;
10977;SDS011;5542;48.272;10.794;2023-05-02T02:19:50;2.30;;;2.20;;
10977;SDS011;5542;48.272;10.794;2023-05-02T02:22:19;2.30;;;2.20;;
10977;SDS011;5542;48.272;10.794;2023-05-02T02:24:48;2.60;;;2.40;;
10977;SDS011;5542;48.272;10.794;2023-05-02T02:27:16;1.90;;;1.80;;
10977;SDS011;5542;48.272;10.794;2023-05-02T02:29:43;2.03;;;1.92;;
10977;SDS011;5542;48.272;10.794;2023-05-02T02:32:10;2.00;;;1.90;;
10977;SDS011;5542;48.272;10.794;2023-05-02T02:34:36;2.40;;;2.30;;
10977;SDS011;5542;48.272;10.794;2023-05-02T02:37:06;2.45;;;2.25;;
10977;SDS011;5542;48.272;10.794;2023-05-02T02:39:41;2.35;;;2.15;;
10977;SDS011;5542;48.272;10.794;2023-05-02T02:42:14;2.03;;;1.93;;
10977;SDS011;5542;48.272;10.794;2023-05-02T02:44:51;2.30;;;2.17;;
10977;SDS011;5542;48.272;10.794;2023-05-02T02:47:22;2.28;;;2.17;;
10977;SDS011;5542;48.272;10.794;2023-05-02T02:49:58;2.38;;;2.28;;
10977;SDS011;5542;48.272;10.794;2023-05-02T02:52:38;2.40;;;2.28;;
10977;SDS011;5542;48.272;10.794;2023-05-02T02:55:16;2.37;;;2.23;;
10977;SDS011;5542;48.272;10.794;2023-05-02T02:57:50;2.58;;;2.47;;
10977;SDS011;5542;48.272;10.794;2023-05-02T03:00:23;2.83;;;2.65;;
10977;SDS011;5542;48.272;10.794;2023-05-02T03:02:52;2.25;;;2.10;;
10977;SDS011;5542;48.272;10.794;2023-05-02T03:05:20;2.40;;;2.10;;
10977;SDS011;5542;48.272;10.794;2023-05-02T03:07:48;2.55;;;2.35;;
10977;SDS011;5542;48.272;10.794;2023-05-02T03:10:16;2.40;;;2.30;;
10977;SDS011;5542;48.272;10.794;2023-05-02T03:12:42;2.42;;;2.22;;
10977;SDS011;5542;48.272;10.794;2023-05-02T03:15:13;2.85;;;2.65;;
10977;SDS011;5542;48.272;10.794;2023-05-02T03:17:50;2.53;;;2.35;;
10977;SDS011;5542;48.272;10.794;2023-05-02T03:20:17;2.47;;;2.30;;
10977;SDS011;5542;48.272;10.794;2023-05-02T03:22:44;2.80;;;2.60;;
10977;SDS011;5542;48.272;10.794;2023-05-02T03:25:12;2.58;;;2.38;;
10977;SDS011;5542;48.272;10.794;2023-05-02T03:27:38;2.93;;;2.70;;
10977;SDS011;5542;48.272;10.794;2023-05-02T03:30:06;2.47;;;2.30;;
10977;SDS011;5542;48.272;10.794;2023-05-02T03:32:33;2.47;;;2.28;;
10977;SDS011;5542;48.272;10.794;2023-05-02T03:35:00;2.40;;;2.25;;
10977;SDS011;5542;48.272;10.794;2023-05-02T03:37:26;2.45;;;2.35;;
10977;SDS011;5542;48.272;10.794;2023-05-02T03:39:53;1.98;;;1.88;;
10977;SDS011;5542;48.272;10.794;2023-05-02T03:42:21;2.75;;;2.53;;
10977;SDS011;5542;48.272;10.794;2023-05-02T03:44:50;2.35;;;2.20;;
10977;SDS011;5542;48.272;10.794;2023-05-02T03:47:17;2.92;;;2.65;;
10977;SDS011;5542;48.272;10.794;2023-05-02T03:49:44;2.38;;;2.17;;
10977;SDS011;5542;48.272;10.794;2023-05-02T03:52:11;2.40;;;2.30;;
10977;SDS011;5542;48.272;10.794;2023-05-02T03:54:38;2.47;;;2.30;;
10977;SDS011;5542;48.272;10.794;2023-05-02T03:57:04;2.40;;;2.25;;
10977;SDS011;5542;48.272;10.794;2023-05-02T03:59:33;2.63;;;2.42;;
10977;SDS011;5542;48.272;10.794;2023-05-02T04:02:01;2.80;;;2.60;;
10977;SDS011;5542;48.272;10.794;2023-05-02T04:04:27;3.13;;;2.92;;
10977;SDS011;5542;48.272;10.794;2023-05-02T04:06:54;3.05;;;2.85;;
10977;SDS011;5542;48.272;10.794;2023-05-02T04:09:21;2.30;;;2.10;;
10977;SDS011;5542;48.272;10.794;2023-05-02T04:11:49;2.00;;;1.90;;
10977;SDS011;5542;48.272;10.794;2023-05-02T04:14:15;2.30;;;2.15;;
10977;SDS011;5542;48.272;10.794;2023-05-02T04:16:47;2.42;;;2.28;;
10977;SDS011;5542;48.272;10.794;2023-05-02T04:19:14;2.55;;;2.35;;
10977;SDS011;5542;48.272;10.794;2023-05-02T04:21:42;2.85;;;2.65;;
10977;SDS011;5542;48.272;10.794;2023-05-02T04:24:09;2.30;;;2.20;;
10977;SDS011;5542;48.272;10.794;2023-05-02T04:26:35;3.10;;;2.83;;
10977;SDS011;5542;48.272;10.794;2023-05-02T04:29:02;2.78;;;2.58;;
10977;SDS011;5542;48.272;10.794;2023-05-02T04:31:29;2.90;;;2.70;;
10977;SDS011;5542;48.272;10.794;2023-05-02T04:33:58;2.90;;;2.70;;
10977;SDS011;5542;48.272;10.794;2023-05-02T04:36:28;2.55;;;2.35;;
10977;SDS011;5542;48.272;10.794;2023-05-02T04:38:55;3.05;;;2.85;;
10977;SDS011;5542;48.272;10.794;2023-05-02T04:41:21;2.72;;;2.50;;
10977;SDS011;5542;48.272;10.794;2023-05-02T04:43:48;2.80;;;2.60;;
10977;SDS011;5542;48.272;10.794;2023-05-02T04:46:15;2.30;;;2.10;;
10977;SDS011;5542;48.272;10.794;2023-05-02T04:48:42;2.00;;;1.90;;
10977;SDS011;5542;48.272;10.794;2023-05-02T04:51:10;2.10;;;2.00;;
10977;SDS011;5542;48.272;10.794;2023-05-02T04:53:37;2.72;;;2.53;;
10977;SDS011;5542;48.272;10.794;2023-05-02T04:56:04;3.00;;;2.80;;
10977;SDS011;5542;48.272;10.794;2023-05-02T04:58:31;2.15;;;2.05;;
10977;SDS011;5542;48.272;10.794;2023-05-02T05:00:59;3.17;;;2.75;;
10977;SDS011;5542;48.272;10.794;2023-05-02T05:03:26;2.90;;;2.70;;
10977;SDS011;5542;48.272;10.794;2023-05-02T05:05:53;3.25;;;2.50;;
10977;SDS011;5542;48.272;10.794;2023-05-02T05:08:21;2.20;;;2.10;;
10977;SDS011;5542;48.272;10.794;2023-05-02T05:10:48;2.13;;;2.00;;
10977;SDS011;5542;48.272;10.794;2023-05-02T05:13:15;2.28;;;2.10;;
10977;SDS011;5542;48.272;10.794;2023-05-02T05:15:42;4.70;;;4.30;;
10977;SDS011;5542;48.272;10.794;2023-05-02T05:18:08;5.47;;;4.68;;
10977;SDS011;5542;48.272;10.794;2023-05-02T05:20:35;6.53;;;4.55;;
10977;SDS011;5542;48.272;10.794;2023-05-02T05:23:01;4.38;;;3.97;;
10977;SDS011;5542;48.272;10.794;2023-05-02T05:25:29;4.53;;;4.13;;
10977;SDS011;5542;48.272;10.794;2023-05-02T05:27:56;4.00;;;3.60;;
10977;SDS011;5542;48.272;10.794;2023-05-02T05:30:24;3.33;;;3.13;;
10977;SDS011;5542;48.272;10.794;2023-05-02T05:32:51;4.00;;;3.65;;
10977;SDS011;5542;48.272;10.794;2023-05-02T05:35:18;3.30;;;3.03;;
10977;SDS011;5542;48.272;10.794;2023-05-02T05:37:44;3.67;;;3.40;;
10977;SDS011;5542;48.272;10.794;2023-05-02T05:40:11;4.07;;;3.78;;
10977;SDS011;5542;48.272;10.794;2023-05-02T05:42:39;4.40;;;3.80;;
10977;SDS011;5542;48.272;10.794;2023-05-02T05:45:06;3.55;;;3.25;;
10977;SDS011;5542;48.272;10.794;2023-05-02T05:47:34;3.70;;;3.40;;
10977;SDS011;5542;48.272;10.794;2023-05-02T05:50:00;3.78;;;3.47;;
10977;SDS011;5542;48.272;10.794;2023-05-02T05:52:27;3.72;;;3.42;;
10977;SDS011;5542;48.272;10.794;2023-05-02T05:54:54;3.55;;;3.25;;
10977;SDS011;5542;48.272;10.794;2023-05-02T05:57:21;4.00;;;3.67;;
10977;SDS011;5542;48.272;10.794;2023-05-02T05:59:50;3.83;;;3.53;;
10977;SDS011;5542;48.272;10.794;2023-05-02T06:02:17;3.38;;;3.08;;
10977;SDS011;5542;48.272;10.794;2023-05-02T06:04:44;3.88;;;3.58;;
10977;SDS011;5542;48.272;10.794;2023-05-02T06:07:10;3.22;;;2.92;;
10977;SDS011;5542;48.272;10.794;2023-05-02T06:09:37;3.55;;;3.25;;
10977;SDS011;5542;48.272;10.794;2023-05-02T06:12:04;3.80;;;3.50;;
10977;SDS011;5542;48.272;10.794;2023-05-02T06:14:30;3.80;;;3.50;;
10977;SDS011;5542;48.272;10.794;2023-05-02T06:16:59;4.10;;;3.80;;
10977;SDS011;5542;48.272;10.794;2023-05-02T06:19:25;4.60;;;4.20;;
10977;SDS011;5542;48.272;10.794;2023-05-02T06:21:52;4.57;;;4.18;;
10977;SDS011;5542;48.272;10.794;2023-05-02T06:24:18;4.70;;;3.50;;
10977;SDS011;5542;48.272;10.794;2023-05-02T06:26:45;3.83;;;3.53;;
10977;SDS011;5542;48.272;10.794;2023-05-02T06:29:12;4.68;;;4.28;;
10977;SDS011;5542;48.272;10.794;2023-05-02T06:31:38;4.10;;;3.80;;
10977;SDS011;5542;48.272;10.794;2023-05-02T06:34:06;4.40;;;4.00;;
10977;SDS011;5542;48.272;10.794;2023-05-02T06:36:33;3.85;;;3.55;;
10977;SDS011;5542;48.272;10.794;2023-05-02T06:38:59;3.97;;;3.67;;
10977;SDS011;5542;48.272;10.794;2023-05-02T06:41:26;4.40;;;4.00;;
10977;SDS011;5542;48.272;10.794;2023-05-02T06:43:53;4.05;;;3.75;;
10977;SDS011;5542;48.272;10.794;2023-05-02T06:46:43;4.45;;;4.05;;
10977;SDS011;5542;48.272;10.794;2023-05-02T06:49:11;3.65;;;3.40;;
10977;SDS011;5542;48.272;10.794;2023-05-02T06:51:37;4.70;;;3.97;;
10977;SDS011;5542;48.272;10.794;2023-05-02T06:54:04;4.77;;;3.90;;
10977;SDS011;5542;48.272;10.794;2023-05-02T06:56:31;4.43;;;4.03;;
10977;SDS011;5542;48.272;10.794;2023-05-02T06:58:58;4.20;;;3.80;;
10977;SDS011;5542;48.272;10.794;2023-05-02T07:01:25;4.63;;;3.92;;
10977;SDS011;5542;48.272;10.794;2023-05-02T07:03:52;4.20;;;3.90;;
10977;SDS011;5542;48.272;10.794;2023-05-02T07:06:26;3.90;;;3.60;;
10977;SDS011;5542;48.272;10.794;2023-05-02T07:08:52;4.55;;;4.15;;
10977;SDS011;5542;48.272;10.794;2023-05-02T07:11:19;4.27;;;3.97;;
10977;SDS011;5542;48.272;10.794;2023-05-02T07:13:48;3.58;;;3.28;;
10977;SDS011;5542;48.272;10.794;2023-05-02T07:16:14;4.82;;;4.43;;
10977;SDS011;5542;48.272;10.794;2023-05-02T07:18:41;5.30;;;4.25;;
10977;SDS011;5542;48.272;10.794;2023-05-02T07:21:10;3.92;;;3.60;;
10977;SDS011;5542;48.272;10.794;2023-05-02T07:23:39;4.87;;;4.43;;
10977;SDS011;5542;48.272;10.794;2023-05-02T07:26:05;4.97;;;4.55;;
10977;SDS011;5542;48.272;10.794;2023-05-02T07:28:32;4.53;;;4.13;;
10977;SDS011;5542;48.272;10.794;2023-05-02T07:30:59;4.70;;;4.30;;
10977;SDS011;5542;48.272;10.794;2023-05-02T07:33:26;4.78;;;4.38;;
10977;SDS011;5542;48.272;10.794;2023-05-02T07:35:54;4.80;;;4.40;;
10977;SDS011;5542;48.272;10.794;2023-05-02T07:38:21;5.38;;;4.88;;
10977;SDS011;5542;48.272;10.794;2023-05-02T07:40:49;4.35;;;4.05;;
10977;SDS011;5542;48.272;10.794;2023-05-02T07:43:15;4.88;;;4.43;;
10977;SDS011;5542;48.272;10.794;2023-05-02T07:45:42;5.47;;;4.97;;
10977;SDS011;5542;48.272;10.794;2023-05-02T07:48:09;4.32;;;3.92;;
10977;SDS011;5542;48.272;10.794;2023-05-02T07:50:36;4.88;;;4.47;;
10977;SDS011;5542;48.272;10.794;2023-05-02T07:53:02;4.05;;;3.75;;
10977;SDS011;5542;48.272;10.794;2023-05-02T07:55:29;4.68;;;4.28;;
10977;SDS011;5542;48.272;10.794;2023-05-02T07:57:58;4.95;;;4.55;;
10977;SDS011;5542;48.272;10.794;2023-05-02T08:00:25;3.93;;;3.53;;
10977;SDS011;5542;48.272;10.794;2023-05-02T08:02:52;4.70;;;4.35;;
10977;SDS011;5542;48.272;10.794;2023-05-02T08:05:28;4.82;;;4.43;;
10977;SDS011;5542;48.272;10.794;2023-05-02T08:07:57;4.93;;;4.53;;
10977;SDS011;5542;48.272;10.794;2023-05-02T08:10:28;4.70;;;4.30;;
10977;SDS011;5542;48.272;10.794;2023-05-02T08:12:54;4.55;;;4.25;;
10977;SDS011;5542;48.272;10.794;2023-05-02T08:15:22;4.53;;;4.13;;
10977;SDS011;5542;48.272;10.794;2023-05-02T08:17:49;4.60;;;4.20;;
10977;SDS011;5542;48.272;10.794;2023-05-02T08:20:16;4.93;;;4.53;;
10977;SDS011;5542;48.272;10.794;2023-05-02T08:22:47;4.18;;;3.88;;
10977;SDS011;5542;48.272;10.794;2023-05-02T08:25:28;5.30;;;4.80;;
10977;SDS011;5542;48.272;10.794;2023-05-02T08:27:55;5.63;;;5.13;;
10977;SDS011;5542;48.272;10.794;2023-05-02T08:30:23;4.25;;;3.95;;
10977;SDS011;5542;48.272;10.794;2023-05-02T08:32:49;5.35;;;4.95;;
10977;SDS011;5542;48.272;10.794;2023-05-02T08:35:16;5.30;;;4.80;;
10977;SDS011;5542;48.272;10.794;2023-05-02T08:37:43;5.40;;;4.90;;
10977;SDS011;5542;48.272;10.794;2023-05-02T08:40:10;5.60;;;5.10;;
10977;SDS011;5542;48.272;10.794;2023-05-02T08:42:40;5.78;;;5.28;;
10977;SDS011;5542;48.272;10.794;2023-05-02T08:45:09;5.50;;;5.00;;
10977;SDS011;5542;48.272;10.794;2023-05-02T08:47:39;5.68;;;5.15;;
10977;SDS011;5542;48.272;10.794;2023-05-02T08:50:07;4.90;;;4.50;;
10977;SDS011;5542;48.272;10.794;2023-05-02T08:52:35;5.15;;;4.72;;
10977;SDS011;5542;48.272;10.794;2023-05-02T08:55:02;4.97;;;4.57;;
10977;SDS011;5542;48.272;10.794;2023-05-02T08:57:29;4.50;;;4.10;;
10977;SDS011;5542;48.272;10.794;2023-05-02T08:59:56;5.22;;;4.82;;
10977;SDS011;5542;48.272;10.794;2023-05-02T09:02:27;5.07;;;4.68;;
10977;SDS011;5542;48.272;10.794;2023-05-02T09:05:10;4.78;;;4.38;;
10977;SDS011;5542;48.272;10.794;2023-05-02T09:07:44;5.45;;;4.95;;
10977;SDS011;5542;48.272;10.794;2023-05-02T09:10:12;4.13;;;3.83;;
10977;SDS011;5542;48.272;10.794;2023-05-02T09:12:39;4.30;;;4.00;;
10977;SDS011;5542;48.272;10.794;2023-05-02T09:15:09;5.63;;;5.13;;
10977;SDS011;5542;48.272;10.794;2023-05-02T09:17:39;4.40;;;4.00;;
10977;SDS011;5542;48.272;10.794;2023-05-02T09:20:10;5.43;;;4.93;;
10977;SDS011;5542;48.272;10.794;2023-05-02T09:22:38;5.95;;;5.38;;
10977;SDS011;5542;48.272;10.794;2023-05-02T09:25:12;4.90;;;4.50;;
10977;SDS011;5542;48.272;10.794;2023-05-02T09:27:53;4.45;;;4.10;;
10977;SDS011;5542;48.272;10.794;2023-05-02T09:30:23;5.20;;;4.80;;
10977;SDS011;5542;48.272;10.794;2023-05-02T09:32:52;4.03;;;3.73;;
10977;SDS011;5542;48.272;10.794;2023-05-02T09:35:19;5.00;;;4.50;;
10977;SDS011;5542;48.272;10.794;2023-05-02T09:37:52;5.75;;;5.20;;
10977;SDS011;5542;48.272;10.794;2023-05-02T09:40:20;5.68;;;4.90;;
10977;SDS011;5542;48.272;10.794;2023-05-02T09:42:47;5.78;;;5.28;;
10977;SDS011;5542;48.272;10.794;2023-05-02T09:45:20;5.00;;;4.60;;
10977;SDS011;5542;48.272;10.794;2023-05-02T09:47:48;5.00;;;4.60;;
10977;SDS011;5542;48.272;10.794;2023-05-02T09:53:06;4.57;;;4.25;;
10977;SDS011;5542;48.272;10.794;2023-05-02T09:55:33;6.90;;;6.30;;
10977;SDS011;5542;48.272;10.794;2023-05-02T09:58:00;4.70;;;4.30;;
10977;SDS011;5542;48.272;10.794;2023-05-02T10:00:39;5.45;;;4.95;;
10977;SDS011;5542;48.272;10.794;2023-05-02T10:03:08;3.97;;;3.60;;
10977;SDS011;5542;48.272;10.794;2023-05-02T10:05:37;4.88;;;4.43;;
10977;SDS011;5542;48.272;10.794;2023-05-02T10:08:04;4.82;;;4.43;;
10977;SDS011;5542;48.272;10.794;2023-05-02T10:10:32;4.60;;;4.20;;
10977;SDS011;5542;48.272;10.794;2023-05-02T10:13:02;4.90;;;4.50;;
10977;SDS011;5542;48.272;10.794;2023-05-02T10:15:29;4.15;;;3.85;;
10977;SDS011;5542;48.272;10.794;2023-05-02T10:17:58;4.30;;;3.90;;
10977;SDS011;5542;48.272;10.794;2023-05-02T10:20:28;3.55;;;3.35;;
10977;SDS011;5542;48.272;10.794;2023-05-02T10:22:59;4.07;;;3.67;;
10977;SDS011;5542;48.272;10.794;2023-05-02T10:25:26;4.05;;;3.65;;
10977;SDS011;5542;48.272;10.794;2023-05-02T10:27:55;4.95;;;4.15;;
10977;SDS011;5542;48.272;10.794;2023-05-02T10:30:23;3.13;;;2.92;;
10977;SDS011;5542;48.272;10.794;2023-05-02T10:32:51;3.88;;;3.58;;
10977;SDS011;5542;48.272;10.794;2023-05-02T10:35:19;3.13;;;2.92;;
10977;SDS011;5542;48.272;10.794;2023-05-02T10:37:48;4.65;;;4.25;;
10977;SDS011;5542;48.272;10.794;2023-05-02T10:40:17;3.70;;;3.40;;
10977;SDS011;5542;48.272;10.794;2023-05-02T10:42:47;3.70;;;3.40;;
10977;SDS011;5542;48.272;10.794;2023-05-02T10:45:29;3.40;;;3.05;;
10977;SDS011;5542;48.272;10.794;2023-05-02T10:48:16;4.45;;;4.05;;
10977;SDS011;5542;48.272;10.794;2023-05-02T10:50:45;3.17;;;2.97;;
10977;SDS011;5542;48.272;10.794;2023-05-02T10:56:08;5.00;;;4.50;;
10977;SDS011;5542;48.272;10.794;2023-05-02T10:58:37;4.27;;;3.83;;
10977;SDS011;5542;48.272;10.794;2023-05-02T11:04:06;4.82;;;4.43;;
10977;SDS011;5542;48.272;10.794;2023-05-02T11:07:15;5.35;;;4.80;;
10977;SDS011;5542;48.272;10.794;2023-05-02T11:09:44;5.35;;;4.95;;
10977;SDS011;5542;48.272;10.794;2023-05-02T11:12:11;4.93;;;4.50;;
10977;SDS011;5542;48.272;10.794;2023-05-02T11:15:11;5.80;;;4.40;;
10977;SDS011;5542;48.272;10.794;2023-05-02T11:18:03;5.00;;;4.60;;
10977;SDS011;5542;48.272;10.794;2023-05-02T11:20:31;4.68;;;4.28;;
10977;SDS011;5542;48.272;10.794;2023-05-02T11:22:59;4.57;;;4.13;;
10977;SDS011;5542;48.272;10.794;2023-05-02T11:25:50;3.85;;;3.55;;
10977;SDS011;5542;48.272;10.794;2023-05-02T11:34:18;4.20;;;3.90;;
10977;SDS011;5542;48.272;10.794;2023-05-02T11:36:45;5.45;;;5.03;;
10977;SDS011;5542;48.272;10.794;2023-05-02T11:39:17;5.15;;;4.70;;
10977;SDS011;5542;48.272;10.794;2023-05-02T11:41:46;4.60;;;4.20;;
10977;SDS011;5542;48.272;10.794;2023-05-02T11:44:15;4.80;;;4.40;;
10977;SDS011;5542;48.272;10.794;2023-05-02T11:46:41;4.60;;;4.20;;
10977;SDS011;5542;48.272;10.794;2023-05-02T11:49:09;4.90;;;4.50;;
10977;SDS011;5542;48.272;10.794;2023-05-02T11:51:37;4.38;;;3.97;;
10977;SDS011;5542;48.272;10.794;2023-05-02T11:54:03;4.68;;;4.28;;
10977;SDS011;5542;48.272;10.794;2023-05-02T11:56:32;4.35;;;3.95;;
10977;SDS011;5542;48.272;10.794;2023-05-02T11:59:00;4.75;;;4.35;;
10977;SDS011;5542;48.272;10.794;2023-05-02T12:01:28;4.32;;;3.88;;
10977;SDS011;5542;48.272;10.794;2023-05-02T12:04:01;4.05;;;3.70;;
10977;SDS011;5542;48.272;10.794;2023-05-02T12:06:29;3.80;;;3.50;;
10977;SDS011;5542;48.272;10.794;2023-05-02T12:09:05;3.70;;;3.23;;
10977;SDS011;5542;48.272;10.794;2023-05-02T12:11:33;3.10;;;2.90;;
10977;SDS011;5542;48.272;10.794;2023-05-02T12:14:03;3.20;;;3.00;;
10977;SDS011;5542;48.272;10.794;2023-05-02T12:16:30;4.00;;;3.65;;
10977;SDS011;5542;48.272;10.794;2023-05-02T12:18:57;4.18;;;3.85;;
10977;SDS011;5542;48.272;10.794;2023-05-02T12:21:25;4.60;;;3.83;;
10977;SDS011;5542;48.272;10.794;2023-05-02T12:23:54;3.75;;;3.45;;
10977;SDS011;5542;48.272;10.794;2023-05-02T12:26:21;3.03;;;2.83;;
10977;SDS011;5542;48.272;10.794;2023-05-02T12:28:51;2.80;;;2.60;;
10977;SDS011;5542;48.272;10.794;2023-05-02T12:31:21;2.50;;;2.40;;
10977;SDS011;5542;48.272;10.794;2023-05-02T12:33:48;3.20;;;3.00;;
10977;SDS011;5542;48.272;10.794;2023-05-02T12:36:16;3.03;;;2.83;;
10977;SDS011;5542;48.272;10.794;2023-05-02T12:38:46;3.25;;;3.05;;
10977;SDS011;5542;48.272;10.794;2023-05-02T12:41:15;3.92;;;3.60;;
10977;SDS011;5542;48.272;10.794;2023-05-02T12:43:46;3.25;;;3.03;;
10977;SDS011;5542;48.272;10.794;2023-05-02T12:46:13;3.20;;;2.90;;
10977;SDS011;5542;48.272;10.794;2023-05-02T12:48:41;3.22;;;2.92;;
10977;SDS011;5542;48.272;10.794;2023-05-02T12:51:19;3.03;;;2.83;;
10977;SDS011;5542;48.272;10.794;2023-05-02T12:53:46;2.67;;;2.53;;
10977;SDS011;5542;48.272;10.794;2023-05-02T12:56:13;3.08;;;2.80;;
10977;SDS011;5542;48.272;10.794;2023-05-02T12:58:41;3.03;;;2.83;;
10977;SDS011;5542;48.272;10.794;2023-05-02T13:01:10;2.60;;;2.40;;
10977;SDS011;5542;48.272;10.794;2023-05-02T13:03:39;2.50;;;2.30;;
10977;SDS011;5542;48.272;10.794;2023-05-02T13:06:08;2.30;;;2.20;;
10977;SDS011;5542;48.272;10.794;2023-05-02T13:08:38;1.98;;;1.88;;
10977;SDS011;5542;48.272;10.794;2023-05-02T13:11:04;2.10;;;2.00;;
10977;SDS011;5542;48.272;10.794;2023-05-02T13:13:31;1.90;;;1.80;;
10977;SDS011;5542;48.272;10.794;2023-05-02T13:15:59;2.80;;;2.60;;
10977;SDS011;5542;48.272;10.794;2023-05-02T13:18:25;1.90;;;1.80;;
10977;SDS011;5542;48.272;10.794;2023-05-02T13:20:54;2.35;;;2.25;;
10977;SDS011;5542;48.272;10.794;2023-05-02T13:23:21;2.53;;;2.42;;
10977;SDS011;5542;48.272;10.794;2023-05-02T13:25:48;2.55;;;2.35;;
10977;SDS011;5542;48.272;10.794;2023-05-02T13:28:15;2.20;;;2.10;;
10977;SDS011;5542;48.272;10.794;2023-05-02T13:30:41;2.78;;;2.58;;
10977;SDS011;5542;48.272;10.794;2023-05-02T13:33:08;2.83;;;2.63;;
10977;SDS011;5542;48.272;10.794;2023-05-02T13:35:34;2.97;;;2.78;;
10977;SDS011;5542;48.272;10.794;2023-05-02T13:38:02;2.22;;;2.03;;
10977;SDS011;5542;48.272;10.794;2023-05-02T13:40:29;2.50;;;2.40;;
10977;SDS011;5542;48.272;10.794;2023-05-02T13:42:56;2.42;;;2.33;;
10977;SDS011;5542;48.272;10.794;2023-05-02T13:45:22;2.65;;;2.45;;
10977;SDS011;5542;48.272;10.794;2023-05-02T13:47:49;2.28;;;2.17;;
10977;SDS011;5542;48.272;10.794;2023-05-02T13:50:16;2.53;;;2.33;;
10977;SDS011;5542;48.272;10.794;2023-05-02T13:52:42;2.40;;;2.20;;
10977;SDS011;5542;48.272;10.794;2023-05-02T13:55:10;2.22;;;2.13;;
10977;SDS011;5542;48.272;10.794;2023-05-02T13:57:37;2.63;;;2.42;;
10977;SDS011;5542;48.272;10.794;2023-05-02T14:00:04;2.70;;;2.50;;
10977;SDS011;5542;48.272;10.794;2023-05-02T14:02:37;2.90;;;2.70;;
10977;SDS011;5542;48.272;10.794;2023-05-02T14:05:12;3.33;;;3.00;;
10977;SDS011;5542;48.272;10.794;2023-05-02T14:07:42;2.65;;;2.45;;
10977;SDS011;5542;48.272;10.794;2023-05-02T14:10:08;2.70;;;2.50;;
10977;SDS011;5542;48.272;10.794;2023-05-02T14:12:49;2.30;;;2.10;;
10977;SDS011;5542;48.272;10.794;2023-05-02T14:15:17;2.30;;;2.20;;
10977;SDS011;5542;48.272;10.794;2023-05-02T14:17:44;2.85;;;2.65;;
10977;SDS011;5542;48.272;10.794;2023-05-02T14:20:11;2.95;;;2.63;;
10977;SDS011;5542;48.272;10.794;2023-05-02T14:22:38;2.72;;;2.50;;
10977;SDS011;5542;48.272;10.794;2023-05-02T14:25:05;2.47;;;2.38;;
10977;SDS011;5542;48.272;10.794;2023-05-02T14:27:34;3.33;;;2.78;;
10977;SDS011;5542;48.272;10.794;2023-05-02T14:30:00;3.05;;;2.85;;
10977;SDS011;5542;48.272;10.794;2023-05-02T14:32:27;2.80;;;2.60;;
10977;SDS011;5542;48.272;10.794;2023-05-02T14:34:53;2.90;;;2.70;;
10977;SDS011;5542;48.272;10.794;2023-05-02T14:37:20;2.35;;;2.15;;
10977;SDS011;5542;48.272;10.794;2023-05-02T14:39:47;2.53;;;2.33;;
10977;SDS011;5542;48.272;10.794;2023-05-02T14:42:16;2.83;;;2.63;;
10977;SDS011;5542;48.272;10.794;2023-05-02T14:44:44;3.05;;;2.75;;
10977;SDS011;5542;48.272;10.794;2023-05-02T14:47:11;2.08;;;1.98;;
10977;SDS011;5542;48.272;10.794;2023-05-02T14:49:40;2.45;;;2.35;;
10977;SDS011;5542;48.272;10.794;2023-05-02T14:52:06;2.75;;;2.55;;
10977;SDS011;5542;48.272;10.794;2023-05-02T14:54:33;3.00;;;2.80;;
10977;SDS011;5542;48.272;10.794;2023-05-02T14:57:00;3.00;;;2.80;;
10977;SDS011;5542;48.272;10.794;2023-05-02T14:59:27;3.40;;;3.10;;
10977;SDS011;5542;48.272;10.794;2023-05-02T15:01:56;2.20;;;2.08;;
10977;SDS011;5542;48.272;10.794;2023-05-02T15:04:23;2.58;;;2.40;;
10977;SDS011;5542;48.272;10.794;2023-05-02T15:06:50;3.10;;;2.78;;
10977;SDS011;5542;48.272;10.794;2023-05-02T15:09:18;2.10;;;2.00;;
10977;SDS011;5542;48.272;10.794;2023-05-02T15:11:45;2.28;;;2.17;;